createdAt,value
2023-12-12T00:00:57.648Z,1.10
2023-12-12T00:03:24.253Z,1.40
2023-12-12T00:05:50.795Z,1.63
2023-12-12T00:08:17.255Z,1.42
2023-12-12T00:10:43.729Z,2.05
2023-12-12T00:13:10.276Z,2.05
2023-12-12T00:15:36.732Z,3.63
2023-12-12T00:18:03.269Z,1.73
2023-12-12T00:20:29.814Z,1.50
2023-12-12T00:22:56.281Z,3.15
2023-12-12T00:25:22.870Z,2.45
2023-12-12T00:27:49.427Z,2.70
2023-12-12T00:30:15.889Z,1.60
2023-12-12T00:32:42.392Z,1.48
2023-12-12T00:35:09.128Z,2.10
2023-12-12T00:37:35.904Z,2.42
2023-12-12T00:40:03.130Z,1.58
2023-12-12T00:42:29.629Z,1.33
2023-12-12T00:44:56.058Z,2.05
2023-12-12T00:47:22.572Z,2.45
2023-12-12T00:49:49.166Z,1.67
2023-12-12T00:52:15.792Z,1.05
2023-12-12T00:54:42.391Z,2.50
2023-12-12T00:57:08.799Z,1.50
2023-12-12T00:59:35.263Z,1.17
2023-12-12T01:02:01.725Z,2.63
2023-12-12T01:04:28.277Z,1.73
2023-12-12T01:06:55.111Z,2.55
2023-12-12T01:09:21.596Z,2.42
2023-12-12T01:11:48.089Z,2.17
2023-12-12T01:14:14.676Z,1.58
2023-12-12T01:16:41.718Z,1.88
2023-12-12T01:19:08.418Z,2.58
2023-12-12T01:21:34.907Z,1.23
2023-12-12T01:24:01.424Z,1.27
2023-12-12T01:26:27.892Z,2.58
2023-12-12T01:28:55.284Z,2.40
2023-12-12T01:31:22.114Z,2.13
2023-12-12T01:33:50.524Z,1.38
2023-12-12T01:36:17.440Z,2.95
2023-12-12T01:38:45.680Z,2.00
2023-12-12T01:41:12.173Z,2.20
2023-12-12T01:43:38.736Z,2.42
2023-12-12T01:46:12.580Z,1.42
2023-12-12T01:48:39.276Z,3.03
2023-12-12T01:51:06.672Z,2.53
2023-12-12T01:53:38.207Z,1.52
2023-12-12T01:56:06.111Z,1.95
2023-12-12T01:58:34.808Z,2.28
2023-12-12T02:01:01.683Z,2.25
2023-12-12T02:03:30.874Z,2.67
2023-12-12T02:05:59.512Z,2.40
2023-12-12T02:08:26.789Z,1.83
2023-12-12T02:10:54.071Z,1.95
2023-12-12T02:13:21.895Z,1.58
2023-12-12T02:15:48.794Z,2.70
2023-12-12T02:18:15.393Z,2.45
2023-12-12T02:20:42.425Z,2.00
2023-12-12T02:23:09.262Z,2.83
2023-12-12T02:25:36.706Z,2.47
2023-12-12T02:28:03.819Z,2.83
2023-12-12T02:30:31.333Z,1.50
2023-12-12T02:33:00.998Z,1.40
2023-12-12T02:35:28.292Z,1.75
2023-12-12T02:37:54.721Z,1.60
2023-12-12T02:40:21.398Z,3.35
2023-12-12T02:42:49.929Z,1.55
2023-12-12T02:45:16.522Z,1.77
2023-12-12T02:47:43.092Z,3.88
2023-12-12T02:50:09.963Z,2.75
2023-12-12T02:52:36.583Z,2.88
2023-12-12T02:55:03.691Z,2.72
2023-12-12T02:57:30.495Z,2.30
2023-12-12T02:59:57.182Z,5.38
2023-12-12T03:02:23.641Z,3.42
2023-12-12T03:04:50.173Z,4.20
2023-12-12T03:07:16.738Z,3.65
2023-12-12T03:09:43.259Z,3.20
2023-12-12T03:12:10.198Z,4.97
2023-12-12T03:14:37.625Z,2.95
2023-12-12T03:17:04.464Z,4.45
2023-12-12T03:19:32.352Z,3.38
2023-12-12T03:21:59.079Z,3.35
2023-12-12T03:24:25.645Z,3.33
2023-12-12T03:26:52.143Z,3.13
2023-12-12T03:29:18.706Z,4.70
2023-12-12T03:31:45.321Z,4.32
2023-12-12T03:34:11.960Z,3.65
2023-12-12T03:36:43.212Z,4.57
2023-12-12T03:39:10.862Z,4.40
2023-12-12T03:41:38.206Z,3.83
2023-12-12T03:44:04.810Z,3.90
2023-12-12T03:46:31.436Z,3.88
2023-12-12T03:48:58.038Z,6.00
2023-12-12T03:51:24.579Z,4.32
2023-12-12T03:53:51.241Z,4.25
2023-12-12T03:56:17.745Z,5.28
2023-12-12T03:58:44.232Z,4.55
2023-12-12T04:01:10.818Z,3.13
2023-12-12T04:03:37.425Z,4.32
2023-12-12T04:06:05.130Z,5.03
2023-12-12T04:08:31.721Z,4.93
2023-12-12T04:10:58.153Z,5.75
2023-12-12T04:13:24.709Z,6.40
2023-12-12T04:15:51.704Z,3.90
2023-12-12T04:18:18.370Z,3.90
2023-12-12T04:20:45.132Z,5.35
2023-12-12T04:23:11.625Z,4.25
2023-12-12T04:25:38.149Z,5.13
2023-12-12T04:28:04.805Z,4.88
2023-12-12T04:30:31.550Z,5.40
2023-12-12T04:32:58.053Z,6.30
2023-12-12T04:35:24.506Z,5.80
2023-12-12T04:37:50.941Z,5.78
2023-12-12T04:40:17.461Z,6.13
2023-12-12T04:42:43.985Z,4.25
2023-12-12T04:45:10.656Z,4.68
2023-12-12T04:47:37.626Z,4.60
2023-12-12T04:50:04.934Z,5.07
2023-12-12T04:52:31.621Z,7.18
2023-12-12T04:54:58.277Z,6.43
2023-12-12T04:57:24.879Z,4.32
2023-12-12T04:59:51.335Z,5.82
2023-12-12T05:02:17.773Z,5.70
2023-12-12T05:04:44.240Z,5.28
2023-12-12T05:07:11.450Z,5.57
2023-12-12T05:09:38.721Z,7.63
2023-12-12T05:12:05.726Z,4.75
2023-12-12T05:14:32.192Z,5.35
2023-12-12T05:17:04.872Z,5.65
2023-12-12T05:19:37.122Z,6.10
2023-12-12T05:22:04.278Z,6.07
2023-12-12T05:24:30.832Z,6.22
2023-12-12T05:26:57.329Z,6.55
2023-12-12T05:29:23.801Z,5.97
2023-12-12T05:31:50.384Z,5.00
2023-12-12T05:34:16.901Z,5.25
2023-12-12T05:36:43.520Z,4.63
2023-12-12T05:39:11.085Z,6.05
2023-12-12T05:41:37.927Z,6.75
2023-12-12T05:44:04.622Z,4.93
2023-12-12T05:46:31.182Z,6.05
2023-12-12T05:48:59.317Z,4.82
2023-12-12T05:51:27.426Z,7.15
2023-12-12T05:53:53.918Z,4.97
2023-12-12T05:56:20.419Z,5.85
2023-12-12T05:58:46.826Z,6.18
2023-12-12T06:01:13.692Z,4.53
2023-12-12T06:03:43.682Z,7.03
2023-12-12T06:06:11.579Z,6.25
2023-12-12T06:08:38.127Z,4.32
2023-12-12T06:11:04.831Z,4.53
2023-12-12T06:13:31.349Z,6.55
2023-12-12T06:15:59.106Z,4.90
2023-12-12T06:18:26.764Z,4.78
2023-12-12T06:20:53.252Z,5.63
2023-12-12T06:23:19.712Z,5.97
2023-12-12T06:25:47.185Z,7.20
2023-12-12T06:28:13.762Z,5.57
2023-12-12T06:30:40.404Z,6.10
2023-12-12T06:33:07.043Z,7.93
2023-12-12T06:35:33.613Z,7.85
2023-12-12T06:38:00.094Z,14.75
2023-12-12T06:40:26.556Z,12.35
2023-12-12T06:42:53.038Z,11.73
2023-12-12T06:45:19.629Z,10.27
2023-12-12T06:47:46.791Z,8.30
2023-12-12T06:50:13.407Z,8.02
2023-12-12T06:52:40.525Z,7.00
2023-12-12T06:55:07.398Z,4.75
2023-12-12T06:57:34.112Z,6.45
2023-12-12T07:00:00.944Z,4.47
2023-12-12T07:02:27.700Z,5.13
2023-12-12T07:04:54.413Z,5.60
2023-12-12T07:07:21.070Z,3.17
2023-12-12T07:09:58.783Z,4.07
2023-12-12T07:15:12.091Z,5.68
2023-12-12T07:17:38.775Z,4.43
2023-12-12T07:20:06.658Z,6.05
2023-12-12T07:22:33.646Z,4.50
2023-12-12T07:25:01.094Z,6.25
2023-12-12T07:27:27.656Z,4.43
2023-12-12T07:29:54.184Z,3.63
2023-12-12T07:32:20.845Z,4.28
2023-12-12T07:34:47.415Z,5.40
2023-12-12T07:37:14.076Z,5.22
2023-12-12T07:39:40.615Z,4.47
2023-12-12T07:42:07.118Z,3.10
2023-12-12T07:44:33.668Z,4.82
2023-12-12T07:47:02.625Z,4.80
2023-12-12T07:49:32.228Z,5.22
2023-12-12T07:51:58.924Z,5.97
2023-12-12T07:54:25.439Z,4.22
2023-12-12T07:56:51.981Z,4.07
2023-12-12T07:59:18.951Z,3.47
2023-12-12T08:01:45.597Z,3.50
2023-12-12T08:04:12.390Z,3.42
2023-12-12T08:06:38.990Z,5.30
2023-12-12T08:09:06.139Z,4.38
2023-12-12T08:11:32.587Z,6.57
2023-12-12T08:14:01.237Z,4.20
2023-12-12T08:16:27.886Z,9.48
2023-12-12T08:18:54.495Z,5.18
2023-12-12T08:21:21.248Z,4.88
2023-12-12T08:23:49.653Z,5.75
2023-12-12T08:26:16.191Z,6.10
2023-12-12T08:28:42.726Z,4.85
2023-12-12T08:31:09.347Z,5.07
2023-12-12T08:33:36.287Z,3.20
2023-12-12T08:36:04.896Z,4.45
2023-12-12T08:38:31.541Z,3.78
2023-12-12T08:40:58.074Z,4.97
2023-12-12T08:43:25.124Z,4.93
2023-12-12T08:45:53.781Z,4.10
2023-12-12T08:48:20.471Z,4.05
2023-12-12T08:50:49.580Z,3.58
2023-12-12T08:53:16.835Z,4.72
2023-12-12T08:55:43.580Z,4.38
2023-12-12T08:58:11.961Z,6.00
2023-12-12T09:00:39.933Z,3.83
2023-12-12T09:03:06.544Z,4.65
2023-12-12T09:05:33.002Z,2.75
2023-12-12T09:07:59.656Z,2.95
2023-12-12T09:10:26.191Z,5.63
2023-12-12T09:12:52.659Z,3.47
2023-12-12T09:15:19.182Z,2.70
2023-12-12T09:17:56.448Z,2.55
2023-12-12T09:20:32.142Z,3.67
2023-12-12T09:22:58.694Z,2.45
2023-12-12T09:25:27.038Z,3.95
2023-12-12T09:27:53.671Z,3.72
2023-12-12T09:30:20.167Z,1.52
2023-12-12T09:32:46.812Z,2.92
2023-12-12T09:35:13.382Z,3.38
2023-12-12T09:37:39.972Z,3.13
2023-12-12T09:40:07.316Z,2.67
2023-12-12T09:42:35.354Z,2.55
2023-12-12T09:45:11.689Z,3.70
2023-12-12T09:47:40.927Z,2.22
2023-12-12T09:50:11.673Z,3.03
2023-12-12T09:52:38.877Z,2.15
2023-12-12T09:55:06.827Z,3.28
2023-12-12T09:57:34.401Z,4.55
2023-12-12T10:00:01.805Z,3.50
2023-12-12T10:02:38.316Z,3.60
2023-12-12T10:05:05.978Z,2.00
2023-12-12T10:07:34.638Z,2.90
2023-12-12T10:10:05.350Z,2.60
2023-12-12T10:12:32.230Z,3.50
2023-12-12T10:14:59.562Z,3.47
2023-12-12T10:17:28.045Z,4.53
2023-12-12T10:20:04.750Z,2.17
2023-12-12T10:22:33.068Z,3.65
2023-12-12T10:25:13.277Z,1.58
2023-12-12T10:27:43.086Z,4.60
2023-12-12T10:30:13.728Z,2.65
2023-12-12T10:32:41.559Z,3.42
2023-12-12T10:35:08.844Z,3.97
2023-12-12T10:37:35.711Z,3.20
2023-12-12T10:40:11.971Z,3.72
2023-12-12T10:42:39.377Z,3.53
2023-12-12T10:45:08.049Z,3.00
2023-12-12T10:47:38.696Z,3.63
2023-12-12T10:50:10.572Z,3.88
2023-12-12T10:52:38.724Z,3.60
2023-12-12T10:55:06.876Z,3.38
2023-12-12T10:57:34.250Z,3.15
2023-12-12T11:00:16.543Z,2.92
2023-12-12T11:02:46.053Z,2.78
2023-12-12T11:05:13.994Z,3.65
2023-12-12T11:07:42.334Z,4.13
2023-12-12T11:10:12.018Z,5.65
2023-12-12T11:12:42.398Z,3.22
2023-12-12T11:15:10.882Z,2.25
2023-12-12T11:17:37.533Z,1.98
2023-12-12T11:20:14.940Z,4.82
2023-12-12T11:22:44.119Z,3.80
2023-12-12T11:25:20.877Z,2.60
2023-12-12T11:27:50.585Z,2.97
2023-12-12T11:30:19.377Z,2.85
2023-12-12T11:32:46.942Z,4.15
2023-12-12T11:35:33.630Z,2.97
2023-12-12T11:38:04.176Z,1.70
2023-12-12T11:40:31.415Z,3.15
2023-12-12T11:43:18.035Z,5.10
2023-12-12T11:45:46.107Z,5.75
2023-12-12T11:48:13.068Z,1.92
2023-12-12T11:50:40.477Z,4.10
2023-12-12T11:53:06.993Z,2.05
2023-12-12T11:55:34.163Z,2.83
2023-12-12T11:58:02.646Z,1.27
2023-12-12T12:00:34.156Z,4.68
2023-12-12T12:03:02.013Z,4.13
2023-12-12T12:05:28.898Z,2.67
2023-12-12T12:07:56.343Z,2.40
2023-12-12T12:10:24.966Z,1.55
2023-12-12T12:12:56.277Z,2.53
2023-12-12T12:15:23.169Z,1.77
2023-12-12T12:17:50.260Z,2.28
2023-12-12T12:20:17.035Z,3.70
2023-12-12T12:22:43.705Z,1.85
2023-12-12T12:25:10.691Z,1.85
2023-12-12T12:27:52.358Z,2.60
2023-12-12T12:30:19.652Z,2.03
2023-12-12T12:33:08.173Z,2.17
2023-12-12T12:35:34.732Z,1.02
2023-12-12T12:38:01.555Z,2.28
2023-12-12T12:40:39.403Z,3.65
2023-12-12T12:43:16.499Z,3.67
2023-12-12T12:48:09.726Z,2.38
2023-12-12T12:50:36.404Z,3.25
2023-12-12T12:53:04.600Z,3.00
2023-12-12T12:55:31.391Z,3.22
2023-12-12T12:57:58.010Z,3.35
2023-12-12T13:00:24.673Z,2.70
2023-12-12T13:02:51.236Z,3.45
2023-12-12T13:05:18.838Z,1.95
2023-12-12T13:07:45.519Z,1.05
2023-12-12T13:10:12.479Z,2.15
2023-12-12T13:12:39.977Z,4.25
2023-12-12T13:15:13.044Z,2.70
2023-12-12T13:17:39.927Z,3.30
2023-12-12T13:20:13.208Z,1.90
2023-12-12T13:22:44.662Z,2.47
2023-12-12T13:25:12.494Z,2.08
2023-12-12T13:27:40.485Z,3.60
2023-12-12T13:30:11.822Z,1.88
2023-12-12T13:32:39.761Z,2.30
2023-12-12T13:35:18.240Z,1.52
2023-12-12T13:37:53.793Z,0.63
2023-12-12T13:40:23.301Z,2.05
2023-12-12T13:42:50.861Z,1.75
2023-12-12T13:45:18.352Z,1.67
2023-12-12T13:47:45.088Z,1.65
2023-12-12T13:50:11.790Z,1.38
2023-12-12T13:52:39.055Z,1.60
2023-12-12T13:55:07.378Z,0.98
2023-12-12T13:57:33.910Z,1.42
2023-12-12T14:00:00.486Z,1.63
2023-12-12T14:02:33.049Z,2.05
2023-12-12T14:05:03.341Z,2.00
2023-12-12T14:07:30.544Z,2.47
2023-12-12T14:09:57.084Z,2.10
2023-12-12T14:12:23.592Z,2.55
2023-12-12T14:14:50.081Z,1.55
2023-12-12T14:17:16.872Z,2.30
2023-12-12T14:19:43.789Z,2.58
2023-12-12T14:22:13.542Z,2.67
2023-12-12T14:24:40.881Z,2.13
2023-12-12T14:27:07.891Z,1.98
2023-12-12T14:29:34.610Z,3.40
2023-12-12T14:32:01.487Z,1.77
2023-12-12T14:34:28.228Z,1.98
2023-12-12T14:36:54.966Z,2.08
2023-12-12T14:39:21.470Z,2.05
2023-12-12T14:41:48.291Z,2.13
2023-12-12T14:44:15.063Z,3.05
2023-12-12T14:46:41.827Z,2.60
2023-12-12T14:49:08.526Z,1.88
2023-12-12T14:51:35.136Z,3.40
2023-12-12T14:54:01.930Z,2.88
2023-12-12T14:56:28.630Z,2.55
2023-12-12T14:58:56.615Z,1.20
2023-12-12T15:01:23.231Z,3.15
2023-12-12T15:03:49.810Z,1.10
2023-12-12T15:06:16.407Z,3.38
2023-12-12T15:08:43.095Z,2.58
2023-12-12T15:11:09.563Z,4.13
2023-12-12T15:13:36.155Z,1.70
2023-12-12T15:16:02.687Z,3.35
2023-12-12T15:18:29.293Z,3.33
2023-12-12T15:20:55.959Z,3.30
2023-12-12T15:23:22.431Z,1.55
2023-12-12T15:25:48.932Z,2.80
2023-12-12T15:28:25.107Z,2.17
2023-12-12T15:30:56.005Z,2.25
2023-12-12T15:33:23.376Z,3.63
2023-12-12T15:35:50.044Z,2.20
2023-12-12T15:38:16.720Z,2.97
2023-12-12T15:40:43.928Z,2.03
2023-12-12T15:43:12.101Z,4.07
2023-12-12T15:45:38.586Z,2.60
2023-12-12T15:48:05.424Z,3.08
2023-12-12T15:50:32.231Z,3.28
2023-12-12T15:52:58.713Z,2.83
2023-12-12T15:55:25.251Z,4.07
2023-12-12T15:57:51.786Z,2.75
2023-12-12T16:00:18.549Z,4.05
2023-12-12T16:02:45.280Z,4.05
2023-12-12T16:05:12.543Z,3.33
2023-12-12T16:07:40.225Z,3.70
2023-12-12T16:10:08.610Z,4.10
2023-12-12T16:12:36.509Z,4.18
2023-12-12T16:15:07.054Z,4.03
2023-12-12T16:17:34.131Z,3.80
2023-12-12T16:20:05.082Z,3.38
2023-12-12T16:22:37.071Z,3.67
2023-12-12T16:25:04.527Z,4.65
2023-12-12T16:27:31.308Z,4.80
2023-12-12T16:29:58.082Z,5.15
2023-12-12T16:32:24.716Z,3.60
2023-12-12T16:34:52.722Z,3.65
2023-12-12T16:37:19.974Z,4.15
2023-12-12T16:39:46.557Z,5.60
2023-12-12T16:42:17.017Z,5.28
2023-12-12T16:44:43.536Z,5.20
2023-12-12T16:47:12.733Z,3.58
2023-12-12T16:49:39.476Z,5.45
2023-12-12T16:52:06.190Z,4.00
2023-12-12T16:54:32.753Z,5.13
2023-12-12T16:56:59.663Z,4.68
2023-12-12T16:59:27.687Z,4.60
2023-12-12T17:01:56.957Z,3.55
2023-12-12T17:04:27.894Z,3.95
2023-12-12T17:06:55.242Z,2.33
2023-12-12T17:09:21.777Z,4.38
2023-12-12T17:11:48.772Z,3.78
2023-12-12T17:14:15.296Z,4.93
2023-12-12T17:16:44.594Z,3.40
2023-12-12T17:19:11.377Z,3.22
2023-12-12T17:21:37.971Z,4.80
2023-12-12T17:24:04.613Z,3.53
2023-12-12T17:26:31.135Z,2.72
2023-12-12T17:28:58.182Z,4.80
2023-12-12T17:31:24.742Z,4.78
2023-12-12T17:33:51.345Z,4.30
2023-12-12T17:36:17.874Z,4.72
2023-12-12T17:38:44.394Z,3.58
2023-12-12T17:41:17.475Z,6.18
2023-12-12T17:43:45.068Z,5.18
2023-12-12T17:46:12.009Z,4.32
2023-12-12T17:48:40.674Z,6.63
2023-12-12T17:51:07.564Z,4.15
2023-12-12T17:53:33.966Z,4.53
2023-12-12T17:56:02.083Z,5.63
2023-12-12T17:58:28.744Z,4.25
2023-12-12T18:00:55.412Z,4.30
2023-12-12T18:03:21.953Z,6.00
2023-12-12T18:05:50.533Z,4.22
2023-12-12T18:08:17.097Z,5.20
2023-12-12T18:10:43.653Z,5.25
2023-12-12T18:13:10.196Z,3.75
2023-12-12T18:15:36.853Z,3.83
2023-12-12T18:18:03.468Z,5.57
2023-12-12T18:20:30.189Z,5.30
2023-12-12T18:22:58.358Z,5.63
2023-12-12T18:25:25.652Z,5.90
2023-12-12T18:27:52.825Z,4.68
2023-12-12T18:30:26.064Z,3.83
2023-12-12T18:32:53.011Z,5.32
2023-12-12T18:35:20.577Z,4.78
2023-12-12T18:37:47.062Z,3.95
2023-12-12T18:40:17.976Z,4.50
2023-12-12T18:42:44.791Z,3.60
2023-12-12T18:45:12.682Z,4.60
2023-12-12T18:47:39.606Z,3.03
2023-12-12T18:50:07.915Z,5.32
2023-12-12T18:52:34.521Z,3.25
2023-12-12T18:55:01.248Z,3.30
2023-12-12T18:57:28.643Z,2.35
2023-12-12T18:59:55.254Z,2.50
2023-12-12T19:02:22.846Z,2.35
2023-12-12T19:04:49.568Z,3.60
2023-12-12T19:07:16.343Z,4.07
2023-12-12T19:09:43.491Z,2.22
2023-12-12T19:12:10.364Z,3.95
2023-12-12T19:14:36.950Z,2.90
2023-12-12T19:17:03.773Z,2.90
2023-12-12T19:19:33.199Z,4.10
2023-12-12T19:22:01.185Z,4.18
2023-12-12T19:24:28.753Z,3.15
2023-12-12T19:26:55.245Z,4.20
2023-12-12T19:29:23.106Z,3.35
2023-12-12T19:31:49.751Z,5.13
2023-12-12T19:34:16.482Z,3.17
2023-12-12T19:36:47.423Z,3.50
2023-12-12T19:39:15.147Z,3.80
2023-12-12T19:41:44.605Z,4.80
2023-12-12T19:44:12.257Z,5.18
2023-12-12T19:46:38.832Z,6.43
2023-12-12T19:49:05.475Z,2.97
2023-12-12T19:51:32.008Z,3.85
2023-12-12T19:53:58.726Z,5.72
2023-12-12T19:56:25.242Z,5.63
2023-12-12T19:58:52.495Z,6.65
2023-12-12T20:01:19.185Z,5.40
2023-12-12T20:03:46.271Z,4.10
2023-12-12T20:06:13.538Z,5.32
2023-12-12T20:08:39.967Z,5.95
2023-12-12T20:11:07.049Z,4.57
2023-12-12T20:13:34.001Z,5.22
2023-12-12T20:16:00.578Z,4.53
2023-12-12T20:18:27.373Z,4.05
2023-12-12T20:20:53.951Z,3.78
2023-12-12T20:23:22.168Z,3.78
2023-12-12T20:25:48.736Z,2.67
2023-12-12T20:28:15.258Z,1.77
2023-12-12T20:30:42.116Z,3.60
2023-12-12T20:33:09.233Z,3.85
2023-12-12T20:35:35.953Z,4.13
2023-12-12T20:38:02.460Z,2.78
2023-12-12T20:40:29.020Z,3.55
2023-12-12T20:42:55.510Z,4.07
2023-12-12T20:45:22.021Z,2.55
2023-12-12T20:47:48.558Z,4.38
2023-12-12T20:50:15.189Z,3.05
2023-12-12T20:52:41.707Z,3.63
2023-12-12T20:55:10.610Z,3.97
2023-12-12T20:57:37.106Z,3.97
2023-12-12T21:00:07.295Z,4.93
2023-12-12T21:02:33.899Z,4.88
2023-12-12T21:05:00.523Z,4.10
2023-12-12T21:07:27.078Z,2.63
2023-12-12T21:09:53.552Z,3.15
2023-12-12T21:12:20.027Z,3.38
2023-12-12T21:14:46.478Z,3.92
2023-12-12T21:17:12.947Z,3.92
2023-12-12T21:19:39.945Z,2.22
2023-12-12T21:22:06.535Z,3.90
2023-12-12T21:24:33.076Z,3.55
2023-12-12T21:27:00.829Z,2.30
2023-12-12T21:29:27.295Z,3.28
2023-12-12T21:31:53.883Z,2.42
2023-12-12T21:34:20.513Z,2.67
2023-12-12T21:36:47.159Z,1.92
2023-12-12T21:39:13.649Z,1.73
2023-12-12T21:41:40.842Z,3.30
2023-12-12T21:44:07.306Z,2.88
2023-12-12T21:46:33.827Z,2.47
2023-12-12T21:49:00.464Z,3.25
2023-12-12T21:51:26.995Z,1.60
2023-12-12T21:53:54.045Z,2.63
2023-12-12T21:56:22.307Z,2.10
2023-12-12T21:58:55.089Z,1.10
2023-12-12T22:01:23.533Z,2.35
2023-12-12T22:03:50.100Z,2.78
2023-12-12T22:06:16.668Z,1.60
2023-12-12T22:08:43.138Z,1.17
2023-12-12T22:11:20.262Z,2.22
2023-12-12T22:13:48.116Z,2.05
2023-12-12T22:16:32.624Z,2.05
2023-12-12T22:19:01.190Z,2.00
2023-12-12T22:21:29.870Z,1.27
2023-12-12T22:23:56.415Z,2.13
2023-12-12T22:26:22.943Z,2.33
2023-12-12T22:28:49.496Z,1.98
2023-12-12T22:31:16.022Z,2.63
2023-12-12T22:33:42.555Z,2.42
2023-12-12T22:36:19.022Z,2.47
2023-12-12T22:38:46.756Z,2.15
2023-12-12T22:41:13.506Z,1.65
2023-12-12T22:43:40.723Z,1.13
2023-12-12T22:46:10.562Z,2.22
2023-12-12T22:48:37.934Z,2.25
2023-12-12T22:51:05.596Z,1.48
2023-12-12T22:53:32.082Z,1.67
2023-12-12T22:55:58.713Z,1.55
2023-12-12T22:58:28.392Z,1.40
2023-12-12T23:00:54.964Z,2.40
2023-12-12T23:03:21.714Z,2.33
2023-12-12T23:05:48.531Z,1.33
2023-12-12T23:08:15.010Z,1.27
2023-12-12T23:10:42.209Z,2.00
2023-12-12T23:13:08.871Z,2.38
2023-12-12T23:15:35.525Z,1.83
2023-12-12T23:18:02.154Z,1.75
2023-12-12T23:20:28.874Z,2.22
2023-12-12T23:22:55.433Z,1.55
2023-12-12T23:25:21.925Z,1.80
2023-12-12T23:27:48.462Z,1.88
2023-12-12T23:30:15.473Z,1.77
2023-12-12T23:32:43.170Z,1.92
2023-12-12T23:35:09.905Z,2.17
2023-12-12T23:37:36.712Z,2.85
2023-12-12T23:40:05.994Z,1.63
2023-12-12T23:42:32.862Z,1.23
2023-12-12T23:45:05.057Z,1.30
2023-12-12T23:47:33.188Z,2.10
2023-12-12T23:50:01.024Z,2.67
2023-12-12T23:52:27.853Z,1.35
2023-12-12T23:54:54.350Z,2.58
2023-12-12T23:57:21.864Z,3.33
2023-12-12T23:59:48.370Z,1.88
